createdAt,value
2018-12-29T00:00:56.961Z,69.00
2018-12-29T00:03:24.351Z,68.90
2018-12-29T00:05:51.743Z,67.90
2018-12-29T00:08:19.081Z,68.10
2018-12-29T00:10:46.495Z,69.10
2018-12-29T00:13:13.812Z,69.40
2018-12-29T00:15:41.242Z,68.60
2018-12-29T00:18:08.641Z,69.90
2018-12-29T00:20:35.964Z,67.90
2018-12-29T00:23:03.288Z,68.70
2018-12-29T00:25:30.703Z,68.90
2018-12-29T00:27:58.014Z,68.50
2018-12-29T00:30:25.347Z,69.10
2018-12-29T00:32:52.780Z,69.00
2018-12-29T00:35:20.231Z,68.90
2018-12-29T00:37:47.641Z,69.00
2018-12-29T00:40:15.007Z,68.90
2018-12-29T00:42:42.435Z,67.60
2018-12-29T00:45:10.367Z,68.50
2018-12-29T00:47:37.718Z,68.30
2018-12-29T00:50:05.047Z,68.80
2018-12-29T00:52:32.436Z,67.70
2018-12-29T00:54:59.875Z,68.60
2018-12-29T00:57:27.278Z,68.20
2018-12-29T00:59:54.909Z,68.70
2018-12-29T01:02:22.311Z,68.20
2018-12-29T01:04:49.736Z,68.40
2018-12-29T01:07:17.181Z,67.50
2018-12-29T01:09:44.593Z,68.40
2018-12-29T01:12:12.536Z,67.90
2018-12-29T01:14:39.926Z,67.40
2018-12-29T01:17:07.362Z,68.20
2018-12-29T01:19:35.104Z,68.40
2018-12-29T01:22:02.693Z,68.30
2018-12-29T01:24:30.030Z,67.20
2018-12-29T01:26:57.439Z,68.20
2018-12-29T01:29:24.850Z,66.80
2018-12-29T01:31:52.250Z,67.80
2018-12-29T01:34:19.652Z,67.30
2018-12-29T01:36:46.975Z,68.10
2018-12-29T01:39:14.366Z,66.60
2018-12-29T01:41:41.684Z,67.60
2018-12-29T01:44:09.070Z,67.60
2018-12-29T01:46:36.493Z,67.70
2018-12-29T01:49:03.913Z,66.50
2018-12-29T01:51:31.369Z,68.00
2018-12-29T01:53:58.680Z,68.10
2018-12-29T01:56:26.078Z,67.60
2018-12-29T01:58:53.392Z,68.40
2018-12-29T02:01:21.442Z,67.80
2018-12-29T02:03:48.868Z,66.60
2018-12-29T02:06:16.152Z,67.50
2018-12-29T02:08:43.830Z,68.50
2018-12-29T02:11:11.210Z,67.70
2018-12-29T02:13:38.518Z,68.00
2018-12-29T02:16:05.848Z,67.60
2018-12-29T02:18:33.207Z,68.00
2018-12-29T02:21:00.618Z,68.10
2018-12-29T02:23:29.138Z,67.60
2018-12-29T02:25:56.458Z,67.80
2018-12-29T02:28:23.884Z,67.90
2018-12-29T02:30:51.286Z,67.80
2018-12-29T02:33:18.691Z,68.10
2018-12-29T02:35:46.367Z,67.40
2018-12-29T02:38:13.656Z,68.00
2018-12-29T02:40:40.972Z,67.70
2018-12-29T02:43:08.454Z,67.40
2018-12-29T02:45:35.894Z,67.40
2018-12-29T02:48:03.264Z,67.60
2018-12-29T02:50:30.666Z,67.30
2018-12-29T02:52:58.081Z,67.50
2018-12-29T02:55:25.378Z,67.60
2018-12-29T02:57:52.787Z,67.80
2018-12-29T03:00:20.167Z,67.30
2018-12-29T03:02:47.484Z,66.90
2018-12-29T03:05:14.793Z,67.70
2018-12-29T03:07:42.077Z,67.30
2018-12-29T03:10:09.461Z,67.60
2018-12-29T03:12:36.742Z,67.50
2018-12-29T03:15:06.878Z,67.20
2018-12-29T03:17:34.192Z,67.50
2018-12-29T03:20:01.581Z,67.60
2018-12-29T03:22:28.936Z,67.20
2018-12-29T03:24:56.241Z,67.10
2018-12-29T03:27:23.656Z,67.20
2018-12-29T03:29:51.372Z,67.30
2018-12-29T03:32:18.798Z,67.30
2018-12-29T03:34:46.052Z,67.00
2018-12-29T03:37:13.362Z,67.60
2018-12-29T03:39:40.746Z,67.60
2018-12-29T03:42:08.162Z,66.80
2018-12-29T03:44:35.444Z,67.40
2018-12-29T03:47:02.739Z,67.30
2018-12-29T03:49:31.831Z,67.20
2018-12-29T03:51:59.237Z,67.50
2018-12-29T03:54:26.618Z,67.30
2018-12-29T03:56:53.905Z,67.20
2018-12-29T03:59:21.214Z,67.10
2018-12-29T04:01:48.577Z,67.00
2018-12-29T04:04:15.996Z,67.00
2018-12-29T04:06:43.276Z,67.20
2018-12-29T04:09:32.506Z,66.60
2018-12-29T04:12:01.932Z,66.70
2018-12-29T04:14:29.291Z,67.60
2018-12-29T04:16:56.664Z,67.50
2018-12-29T04:19:23.981Z,67.00
2018-12-29T04:21:51.411Z,67.50
2018-12-29T04:24:18.792Z,67.80
2018-12-29T04:26:46.385Z,67.70
2018-12-29T04:29:13.682Z,67.80
2018-12-29T04:31:41.107Z,67.70
2018-12-29T04:34:08.512Z,67.50
2018-12-29T04:36:35.884Z,68.10
2018-12-29T04:39:05.274Z,68.30
2018-12-29T04:41:32.655Z,68.30
2018-12-29T04:44:00.098Z,67.90
2018-12-29T04:46:27.425Z,68.60
2018-12-29T04:48:54.815Z,68.70
2018-12-29T04:51:22.140Z,69.10
2018-12-29T04:53:49.441Z,68.60
2018-12-29T04:56:16.853Z,69.10
2018-12-29T04:58:44.249Z,69.10
2018-12-29T05:01:11.561Z,69.10
2018-12-29T05:03:38.941Z,69.50
2018-12-29T05:06:06.271Z,69.20
2018-12-29T05:08:33.653Z,69.00
2018-12-29T05:11:01.029Z,69.00
2018-12-29T05:13:28.333Z,68.30
2018-12-29T05:15:55.694Z,68.80
2018-12-29T05:18:23.015Z,69.00
2018-12-29T05:20:50.329Z,69.30
2018-12-29T05:23:17.741Z,68.20
2018-12-29T05:25:45.022Z,68.30
2018-12-29T05:28:12.295Z,68.90
2018-12-29T05:30:39.889Z,69.00
2018-12-29T05:33:07.185Z,68.40
2018-12-29T05:35:34.575Z,68.20
2018-12-29T05:38:01.961Z,68.40
2018-12-29T05:40:29.259Z,68.60
2018-12-29T05:42:56.634Z,67.70
2018-12-29T05:45:24.031Z,68.30
2018-12-29T05:47:51.433Z,68.40
2018-12-29T05:50:18.854Z,68.30
2018-12-29T05:52:46.318Z,69.20
2018-12-29T05:55:13.728Z,68.50
2018-12-29T05:57:41.120Z,68.30
2018-12-29T06:00:08.522Z,69.30
2018-12-29T06:02:35.833Z,68.80
2018-12-29T06:05:03.145Z,68.50
2018-12-29T06:07:30.469Z,68.60
2018-12-29T06:09:58.073Z,68.30
2018-12-29T06:12:25.421Z,68.50
2018-12-29T06:14:53.024Z,68.50
2018-12-29T06:17:20.431Z,68.50
2018-12-29T06:19:47.820Z,67.20
2018-12-29T06:22:15.103Z,68.50
2018-12-29T06:24:42.476Z,68.00
2018-12-29T06:27:09.848Z,68.20
2018-12-29T06:29:37.151Z,67.90
2018-12-29T06:32:04.575Z,67.80
2018-12-29T06:34:32.282Z,67.80
2018-12-29T06:36:59.707Z,68.20
2018-12-29T06:39:27.071Z,68.40
2018-12-29T06:41:54.387Z,68.40
2018-12-29T06:44:21.779Z,68.80
2018-12-29T06:46:49.199Z,67.70
2018-12-29T06:49:16.592Z,67.40
2018-12-29T06:51:43.979Z,67.50
2018-12-29T06:54:11.265Z,67.50
2018-12-29T06:56:38.590Z,68.10
2018-12-29T06:59:05.982Z,68.00
2018-12-29T07:01:33.267Z,67.70
2018-12-29T07:04:00.565Z,68.40
2018-12-29T07:06:27.965Z,68.30
2018-12-29T07:08:55.286Z,68.50
2018-12-29T07:11:22.683Z,68.30
2018-12-29T07:13:49.954Z,68.60
2018-12-29T07:16:17.256Z,68.40
2018-12-29T07:18:44.656Z,68.00
2018-12-29T07:21:12.073Z,68.40
2018-12-29T07:23:39.472Z,68.60
2018-12-29T07:26:06.854Z,67.70
2018-12-29T07:28:34.192Z,68.90
2018-12-29T07:31:01.533Z,68.80
2018-12-29T07:33:28.863Z,68.70
2018-12-29T07:35:56.181Z,68.70
2018-12-29T07:38:23.569Z,68.60
2018-12-29T07:40:50.870Z,67.80
2018-12-29T07:43:18.195Z,67.70
2018-12-29T07:45:45.605Z,67.10
2018-12-29T07:48:13.431Z,67.70
2018-12-29T07:50:41.002Z,67.70
2018-12-29T07:53:08.414Z,67.70
2018-12-29T07:55:35.853Z,67.60
2018-12-29T07:58:04.026Z,68.60
2018-12-29T08:00:31.351Z,68.30
2018-12-29T08:02:58.751Z,68.00
2018-12-29T08:05:26.048Z,68.30
2018-12-29T08:07:53.378Z,67.70
2018-12-29T08:10:20.759Z,68.20
2018-12-29T08:12:48.471Z,68.40
2018-12-29T08:15:15.769Z,68.30
2018-12-29T08:17:43.053Z,68.40
2018-12-29T08:20:10.441Z,68.80
2018-12-29T08:22:37.876Z,68.80
2018-12-29T08:25:05.269Z,69.50
2018-12-29T08:27:32.629Z,70.60
2018-12-29T08:30:00.008Z,70.20
2018-12-29T08:32:27.331Z,70.70
2018-12-29T08:34:54.739Z,70.40
2018-12-29T08:37:22.181Z,70.40
2018-12-29T08:39:49.870Z,70.80
2018-12-29T08:42:17.168Z,70.60
2018-12-29T08:44:44.594Z,70.30
2018-12-29T08:47:12.116Z,70.30
2018-12-29T08:49:39.446Z,70.10
2018-12-29T08:52:06.865Z,70.40
2018-12-29T08:54:34.312Z,69.60
2018-12-29T08:57:01.711Z,70.10
2018-12-29T08:59:29.178Z,70.10
2018-12-29T09:01:57.072Z,70.70
2018-12-29T09:04:24.478Z,70.40
2018-12-29T09:06:51.937Z,70.20
2018-12-29T09:09:19.350Z,70.10
2018-12-29T09:11:46.669Z,69.90
2018-12-29T09:14:13.983Z,69.60
2018-12-29T09:16:41.392Z,69.40
2018-12-29T09:19:08.806Z,70.00
2018-12-29T09:21:36.187Z,70.70
2018-12-29T09:24:03.589Z,70.60
2018-12-29T09:26:30.990Z,71.10
2018-12-29T09:28:58.720Z,71.30
2018-12-29T09:31:26.132Z,71.30
2018-12-29T09:33:53.427Z,71.30
2018-12-29T09:36:21.436Z,70.90
2018-12-29T09:38:48.850Z,70.90
2018-12-29T09:41:16.216Z,70.50
2018-12-29T09:43:43.646Z,70.40
2018-12-29T09:46:11.125Z,70.10
2018-12-29T09:48:38.490Z,69.80
2018-12-29T09:51:05.960Z,70.20
2018-12-29T09:53:33.371Z,70.20
2018-12-29T09:56:00.814Z,70.30
2018-12-29T09:58:28.247Z,69.80
2018-12-29T10:00:55.679Z,70.50
2018-12-29T10:03:23.078Z,71.70
2018-12-29T10:05:50.531Z,71.40
2018-12-29T10:08:17.940Z,71.70
2018-12-29T10:10:45.358Z,71.50
2018-12-29T10:13:13.010Z,70.70
2018-12-29T10:15:40.436Z,70.10
2018-12-29T10:18:07.832Z,70.50
2018-12-29T10:20:35.140Z,70.10
2018-12-29T10:23:02.469Z,69.90
2018-12-29T10:25:30.138Z,70.80
2018-12-29T10:27:57.434Z,70.60
2018-12-29T10:30:24.810Z,70.30
2018-12-29T10:32:52.226Z,70.40
2018-12-29T10:35:19.552Z,71.00
2018-12-29T10:37:47.298Z,71.20
2018-12-29T10:40:14.584Z,71.40
2018-12-29T10:42:42.021Z,71.20
2018-12-29T10:45:09.422Z,71.20
2018-12-29T10:47:37.194Z,71.50
2018-12-29T10:50:04.695Z,73.20
2018-12-29T10:52:32.255Z,72.80
2018-12-29T10:54:59.723Z,72.50
2018-12-29T10:57:27.167Z,71.60
2018-12-29T10:59:54.575Z,71.10
2018-12-29T11:02:21.881Z,71.40
2018-12-29T11:04:49.224Z,71.40
2018-12-29T11:07:16.933Z,72.00
2018-12-29T11:09:44.388Z,72.50
2018-12-29T11:12:11.787Z,73.50
2018-12-29T11:14:39.446Z,73.50
2018-12-29T11:17:06.854Z,72.70
2018-12-29T11:19:34.269Z,72.30
2018-12-29T11:22:02.015Z,71.90
2018-12-29T11:24:29.454Z,71.70
2018-12-29T11:26:57.131Z,71.70
2018-12-29T11:29:24.462Z,70.20
2018-12-29T11:31:51.813Z,70.40
2018-12-29T11:34:19.245Z,70.40
2018-12-29T11:36:46.741Z,70.70
2018-12-29T11:39:14.098Z,69.40
2018-12-29T11:41:41.404Z,69.70
2018-12-29T11:44:08.756Z,70.40
2018-12-29T11:46:36.192Z,69.80
2018-12-29T11:49:03.504Z,70.50
2018-12-29T11:51:30.906Z,70.40
2018-12-29T11:53:58.296Z,71.10
2018-12-29T11:56:25.748Z,71.40
2018-12-29T11:58:53.155Z,70.40
2018-12-29T12:01:20.786Z,70.60
2018-12-29T12:03:48.220Z,70.60
2018-12-29T12:06:15.628Z,70.80
2018-12-29T12:08:43.062Z,71.00
2018-12-29T12:11:10.817Z,72.50
2018-12-29T12:13:38.250Z,73.00
2018-12-29T12:16:06.033Z,73.30
2018-12-29T12:18:33.468Z,74.30
2018-12-29T12:21:00.869Z,74.60
2018-12-29T12:23:28.285Z,75.30
2018-12-29T12:25:55.684Z,75.10
2018-12-29T12:28:23.088Z,74.00
2018-12-29T12:30:50.496Z,73.50
2018-12-29T12:33:18.002Z,72.80
2018-12-29T12:35:45.454Z,72.20
2018-12-29T12:38:13.278Z,72.20
2018-12-29T12:40:40.688Z,72.30
2018-12-29T12:43:08.110Z,72.10
2018-12-29T12:45:35.858Z,72.00
2018-12-29T12:48:05.095Z,71.90
2018-12-29T12:50:32.550Z,71.30
2018-12-29T12:52:59.994Z,71.50
2018-12-29T12:55:27.394Z,72.10
2018-12-29T12:57:54.876Z,72.00
2018-12-29T13:00:22.932Z,71.40
2018-12-29T13:02:50.776Z,71.50
2018-12-29T13:05:18.220Z,71.60
2018-12-29T13:07:45.648Z,71.80
2018-12-29T13:10:13.100Z,72.00
2018-12-29T13:12:40.523Z,71.90
2018-12-29T13:15:07.956Z,71.40
2018-12-29T13:17:35.396Z,71.10
2018-12-29T13:20:02.911Z,70.80
2018-12-29T13:22:30.323Z,70.50
2018-12-29T13:24:57.871Z,71.20
2018-12-29T13:27:25.316Z,71.30
2018-12-29T13:29:53.062Z,71.20
2018-12-29T13:32:20.481Z,71.10
2018-12-29T13:34:47.918Z,71.40
2018-12-29T13:37:15.686Z,70.60
2018-12-29T13:39:43.115Z,70.50
2018-12-29T13:42:10.586Z,70.80
2018-12-29T13:44:38.028Z,70.60
2018-12-29T13:47:05.482Z,70.90
2018-12-29T13:49:33.176Z,71.30
2018-12-29T13:52:00.617Z,70.90
2018-12-29T13:54:28.057Z,71.20
2018-12-29T13:56:55.499Z,71.10
2018-12-29T13:59:22.938Z,70.90
2018-12-29T14:01:50.346Z,70.20
2018-12-29T14:04:18.164Z,69.70
2018-12-29T14:06:45.857Z,70.00
2018-12-29T14:09:13.267Z,70.30
2018-12-29T14:11:40.660Z,70.00
2018-12-29T14:14:08.114Z,70.50
2018-12-29T14:16:35.830Z,70.90
2018-12-29T14:19:03.238Z,71.20
2018-12-29T14:21:30.677Z,71.50
2018-12-29T14:23:58.109Z,71.50
2018-12-29T14:26:25.564Z,70.90
2018-12-29T14:28:52.967Z,71.10
2018-12-29T14:31:20.414Z,70.60
2018-12-29T14:33:47.878Z,71.10
2018-12-29T14:36:15.731Z,71.00
2018-12-29T14:38:43.163Z,70.50
2018-12-29T14:41:10.871Z,70.20
2018-12-29T14:43:39.024Z,70.80
2018-12-29T14:46:06.447Z,71.70
2018-12-29T14:48:36.087Z,71.60
2018-12-29T14:51:03.065Z,71.70
2018-12-29T14:53:30.488Z,71.90
2018-12-29T14:55:58.404Z,72.30
2018-12-29T14:58:25.905Z,72.30
2018-12-29T15:00:53.659Z,72.60
2018-12-29T15:03:21.104Z,71.90
2018-12-29T15:05:48.508Z,71.80
2018-12-29T15:08:15.887Z,72.20
2018-12-29T15:10:43.332Z,71.70
2018-12-29T15:13:11.045Z,71.50
2018-12-29T15:15:38.769Z,71.60
2018-12-29T15:18:06.593Z,72.00
2018-12-29T15:20:34.409Z,72.30
2018-12-29T15:23:02.165Z,73.30
2018-12-29T15:25:29.575Z,73.30
2018-12-29T15:27:57.028Z,73.70
2018-12-29T15:30:24.454Z,74.70
2018-12-29T15:32:51.890Z,74.40
2018-12-29T15:35:19.434Z,73.30
2018-12-29T15:37:46.880Z,74.20
2018-12-29T15:40:14.353Z,73.70
2018-12-29T15:42:45.048Z,74.30
2018-12-29T15:45:11.230Z,74.30
2018-12-29T15:47:39.371Z,73.70
2018-12-29T15:50:06.983Z,73.20
2018-12-29T15:52:34.529Z,73.10
2018-12-29T15:55:02.035Z,73.00
2018-12-29T15:57:29.660Z,72.60
2018-12-29T15:59:57.204Z,72.50
2018-12-29T16:02:24.736Z,72.80
2018-12-29T16:04:52.731Z,72.80
2018-12-29T16:07:20.334Z,72.80
2018-12-29T16:09:48.299Z,72.90
2018-12-29T16:12:15.828Z,73.30
2018-12-29T16:14:43.358Z,74.40
2018-12-29T16:17:11.046Z,74.80
2018-12-29T16:19:39.108Z,74.60
2018-12-29T16:22:06.668Z,74.90
2018-12-29T16:24:34.177Z,74.60
2018-12-29T16:27:02.401Z,74.90
2018-12-29T16:29:29.976Z,74.50
2018-12-29T16:31:57.472Z,75.10
2018-12-29T16:34:25.055Z,75.60
2018-12-29T16:36:52.634Z,76.30
2018-12-29T16:39:20.139Z,75.90
2018-12-29T16:41:47.734Z,75.40
2018-12-29T16:44:15.354Z,75.70
2018-12-29T16:46:42.961Z,75.70
2018-12-29T16:49:10.487Z,75.80
2018-12-29T16:51:38.160Z,75.70
2018-12-29T16:54:06.292Z,76.30
2018-12-29T16:56:34.116Z,77.10
2018-12-29T16:59:01.935Z,77.10
2018-12-29T17:01:30.269Z,77.00
2018-12-29T17:03:58.050Z,77.00
2018-12-29T17:06:26.291Z,76.70
2018-12-29T17:08:54.464Z,76.70
2018-12-29T17:11:21.981Z,76.50
2018-12-29T17:13:49.488Z,75.50
2018-12-29T17:16:17.011Z,75.50
2018-12-29T17:18:44.569Z,75.90
2018-12-29T17:21:12.359Z,76.70
2018-12-29T17:23:40.345Z,76.60
2018-12-29T17:26:07.911Z,75.70
2018-12-29T17:28:36.117Z,74.80
2018-12-29T17:31:03.782Z,74.10
2018-12-29T17:33:31.793Z,73.20
2018-12-29T17:35:59.937Z,73.00
2018-12-29T17:38:27.495Z,73.70
2018-12-29T17:40:55.492Z,73.10
2018-12-29T17:43:23.597Z,72.50
2018-12-29T17:45:51.232Z,72.20
2018-12-29T17:48:19.931Z,72.50
2018-12-29T17:50:47.524Z,72.40
2018-12-29T17:53:15.582Z,73.40
2018-12-29T17:55:43.640Z,73.20
2018-12-29T17:58:11.266Z,73.50
2018-12-29T18:00:39.294Z,72.90
2018-12-29T18:03:07.421Z,72.80
2018-12-29T18:05:35.279Z,72.40
2018-12-29T18:08:03.049Z,72.30
2018-12-29T18:10:31.199Z,71.30
2018-12-29T18:12:58.896Z,71.10
2018-12-29T18:15:26.644Z,71.60
2018-12-29T18:17:54.429Z,71.30
2018-12-29T18:20:22.204Z,71.30
2018-12-29T18:22:49.784Z,71.20
2018-12-29T18:25:17.232Z,71.40
2018-12-29T18:27:45.156Z,72.50
2018-12-29T18:30:12.952Z,72.20
2018-12-29T18:32:40.397Z,72.30
2018-12-29T18:35:07.854Z,72.50
2018-12-29T18:37:35.320Z,71.60
2018-12-29T18:40:03.359Z,71.90
2018-12-29T18:42:30.786Z,72.80
2018-12-29T18:44:58.230Z,72.70
2018-12-29T18:47:25.689Z,72.80
2018-12-29T18:49:53.226Z,73.50
2018-12-29T18:52:21.214Z,72.80
2018-12-29T18:54:48.680Z,72.30
2018-12-29T18:57:16.193Z,72.60
2018-12-29T18:59:43.654Z,72.30
2018-12-29T19:02:11.116Z,73.10
2018-12-29T19:04:39.068Z,73.00
2018-12-29T19:07:06.587Z,73.00
2018-12-29T19:09:34.023Z,73.40
2018-12-29T19:12:01.477Z,73.30
2018-12-29T19:14:28.968Z,73.80
2018-12-29T19:16:56.840Z,73.20
2018-12-29T19:19:24.821Z,73.80
2018-12-29T19:21:52.676Z,75.30
2018-12-29T19:24:20.183Z,75.40
2018-12-29T19:26:47.602Z,74.80
2018-12-29T19:29:15.052Z,74.10
2018-12-29T19:31:44.822Z,74.60
2018-12-29T19:34:11.795Z,74.50
2018-12-29T19:36:39.292Z,73.90
2018-12-29T19:39:07.169Z,73.80
2018-12-29T19:41:34.727Z,74.00
2018-12-29T19:44:02.153Z,74.90
2018-12-29T19:46:29.991Z,74.80
2018-12-29T19:48:57.750Z,74.40
2018-12-29T19:51:25.617Z,74.00
2018-12-29T19:53:53.091Z,74.10
2018-12-29T19:56:20.605Z,75.10
2018-12-29T19:58:48.794Z,75.50
2018-12-29T20:01:16.328Z,74.80
2018-12-29T20:03:43.916Z,74.80
2018-12-29T20:06:11.554Z,74.70
2018-12-29T20:08:39.067Z,74.60
2018-12-29T20:11:06.941Z,74.00
2018-12-29T20:13:34.411Z,73.80
2018-12-29T20:16:01.901Z,73.40
2018-12-29T20:18:29.356Z,73.20
2018-12-29T20:20:57.132Z,73.10
2018-12-29T20:23:25.068Z,73.00
2018-12-29T20:25:52.582Z,73.20
2018-12-29T20:28:20.045Z,73.70
2018-12-29T20:30:47.950Z,74.00
2018-12-29T20:33:15.420Z,74.00
2018-12-29T20:35:42.951Z,73.90
2018-12-29T20:38:10.440Z,73.40
2018-12-29T20:40:37.991Z,73.20
2018-12-29T20:43:05.421Z,73.80
2018-12-29T20:45:32.873Z,75.30
2018-12-29T20:48:00.354Z,75.10
2018-12-29T20:50:27.867Z,75.40
2018-12-29T20:52:55.597Z,75.40
2018-12-29T20:55:23.113Z,74.70
2018-12-29T20:57:50.537Z,74.70
2018-12-29T21:00:18.034Z,76.00
2018-12-29T21:02:45.455Z,75.80
2018-12-29T21:05:12.971Z,75.70
2018-12-29T21:07:40.728Z,74.40
2018-12-29T21:10:08.560Z,74.40
2018-12-29T21:12:36.020Z,74.50
2018-12-29T21:15:03.875Z,75.50
2018-12-29T21:17:31.655Z,75.60
2018-12-29T21:19:59.536Z,75.70
2018-12-29T21:22:27.001Z,75.50
2018-12-29T21:24:54.447Z,75.00
2018-12-29T21:27:21.917Z,75.40
2018-12-29T21:29:49.408Z,74.50
2018-12-29T21:32:16.926Z,74.50
2018-12-29T21:34:44.958Z,74.60
2018-12-29T21:37:12.385Z,74.70
2018-12-29T21:39:39.823Z,74.20
2018-12-29T21:42:07.686Z,74.20
2018-12-29T21:44:35.107Z,74.20
2018-12-29T21:47:02.564Z,74.50
2018-12-29T21:49:30.496Z,75.20
2018-12-29T21:51:58.055Z,75.00
2018-12-29T21:54:25.938Z,74.70
2018-12-29T21:56:53.433Z,74.70
2018-12-29T21:59:21.889Z,74.80
2018-12-29T22:01:49.363Z,75.40
2018-12-29T22:06:45.729Z,77.60
2018-12-29T22:09:13.243Z,78.00
2018-12-29T22:11:40.742Z,78.30
2018-12-29T22:23:56.448Z,78.90
2018-12-29T22:26:24.222Z,78.50
2018-12-29T22:28:51.669Z,79.30
2018-12-29T22:31:19.395Z,80.10
2018-12-29T22:33:47.233Z,80.10
2018-12-29T22:36:14.713Z,79.80
2018-12-29T22:38:42.138Z,80.90
2018-12-29T22:41:09.587Z,81.70
2018-12-29T22:43:37.045Z,81.30
2018-12-29T22:46:05.062Z,80.90
2018-12-29T22:48:32.893Z,79.10
2018-12-29T22:50:59.303Z,79.40
2018-12-29T22:53:26.760Z,78.90
2018-12-29T22:55:54.215Z,79.70
2018-12-29T22:58:21.622Z,80.80
2018-12-29T23:00:49.144Z,81.10
2018-12-29T23:03:16.526Z,80.80
2018-12-29T23:05:43.950Z,80.60
2018-12-29T23:08:11.348Z,81.70
2018-12-29T23:10:38.756Z,81.70
2018-12-29T23:15:33.512Z,81.90
2018-12-29T23:18:00.924Z,82.20
2018-12-29T23:20:28.519Z,81.60
2018-12-29T23:22:56.247Z,82.30
2018-12-29T23:25:23.654Z,81.80
2018-12-29T23:27:51.058Z,81.50
2018-12-29T23:30:18.433Z,82.00
2018-12-29T23:32:46.124Z,81.50
2018-12-29T23:35:13.980Z,81.40
2018-12-29T23:37:41.385Z,80.50
2018-12-29T23:40:08.809Z,80.50
2018-12-29T23:42:36.226Z,80.80
2018-12-29T23:45:04.034Z,80.50
2018-12-29T23:47:31.901Z,81.40
2018-12-29T23:49:59.599Z,81.30
2018-12-29T23:52:27.000Z,81.10
2018-12-29T23:54:54.292Z,81.80
2018-12-29T23:59:48.612Z,81.20
